createdAt,value
2022-08-29T00:00:49.071Z,102222.16
2022-08-29T00:03:17.379Z,102221.75
2022-08-29T00:05:50.559Z,102234.19
2022-08-29T00:08:17.589Z,102234.34
2022-08-29T00:10:44.425Z,102229.84
2022-08-29T00:13:12.839Z,102225.81
2022-08-29T00:15:44.382Z,102233.31
2022-08-29T00:18:13.238Z,102227.25
2022-08-29T00:20:40.344Z,102231.47
2022-08-29T00:23:07.525Z,102221.63
2022-08-29T00:25:34.292Z,102231.03
2022-08-29T00:28:03.850Z,102233.06
2022-08-29T00:30:31.648Z,102227.16
2022-08-29T00:32:58.487Z,102218.75
2022-08-29T00:35:37.499Z,102219.91
2022-08-29T00:38:10.413Z,102232.63
2022-08-29T00:40:51.817Z,102226.28
2022-08-29T00:43:24.670Z,102217.59
2022-08-29T00:46:30.117Z,102230.59
2022-08-29T00:49:04.382Z,102239.00
2022-08-29T00:51:31.810Z,102235.53
2022-08-29T00:54:01.732Z,102222.78
2022-08-29T00:56:31.741Z,102236.09
2022-08-29T00:59:12.860Z,102230.75
2022-08-29T01:01:39.979Z,102228.28
2022-08-29T01:04:09.835Z,102234.81
2022-08-29T01:06:47.776Z,102227.00
2022-08-29T01:09:14.953Z,102226.53
2022-08-29T01:12:00.166Z,102225.50
2022-08-29T01:14:27.728Z,102238.28
2022-08-29T01:16:58.502Z,102240.25
2022-08-29T01:19:46.754Z,102246.03
2022-08-29T01:22:33.742Z,102239.94
2022-08-29T01:25:05.587Z,102240.97
2022-08-29T01:27:36.580Z,102242.25
2022-08-29T01:30:05.760Z,102250.75
2022-08-29T01:32:35.833Z,102243.69
2022-08-29T01:35:05.593Z,102239.75
2022-08-29T01:37:34.005Z,102244.41
2022-08-29T01:40:00.721Z,102232.84
2022-08-29T01:42:29.633Z,102226.00
2022-08-29T01:45:10.063Z,102223.28
2022-08-29T01:47:38.866Z,102227.91
2022-08-29T01:50:10.761Z,102224.72
2022-08-29T01:52:37.322Z,102227.88
2022-08-29T01:55:04.695Z,102227.00
2022-08-29T01:57:31.210Z,102232.19
2022-08-29T01:59:57.961Z,102241.69
2022-08-29T02:02:28.750Z,102239.22
2022-08-29T02:04:58.631Z,102230.56
2022-08-29T02:07:30.186Z,102231.41
2022-08-29T02:09:56.748Z,102238.78
2022-08-29T02:12:25.190Z,102228.94
2022-08-29T02:14:51.804Z,102230.81
2022-08-29T02:17:19.655Z,102226.03
2022-08-29T02:19:46.323Z,102231.25
2022-08-29T02:22:13.497Z,102232.25
2022-08-29T02:24:40.510Z,102232.69
2022-08-29T02:27:10.429Z,102241.91
2022-08-29T02:29:38.379Z,102245.63
2022-08-29T02:32:12.133Z,102246.66
2022-08-29T02:34:39.525Z,102255.16
2022-08-29T02:37:08.995Z,102255.44
2022-08-29T02:39:35.883Z,102255.44
2022-08-29T02:42:05.455Z,102258.31
2022-08-29T02:44:34.668Z,102257.44
2022-08-29T02:47:01.518Z,102248.31
2022-08-29T02:49:28.186Z,102262.16
2022-08-29T02:51:56.834Z,102255.69
2022-08-29T02:54:23.635Z,102254.97
2022-08-29T02:56:50.317Z,102255.69
2022-08-29T02:59:19.510Z,102255.28
2022-08-29T03:01:46.257Z,102267.13
2022-08-29T03:04:12.979Z,102255.69
2022-08-29T03:06:39.543Z,102266.84
2022-08-29T03:09:08.587Z,102260.78
2022-08-29T03:11:37.640Z,102240.38
2022-08-29T03:14:04.373Z,102246.34
2022-08-29T03:16:31.075Z,102236.63
2022-08-29T03:18:57.636Z,102241.41
2022-08-29T03:21:26.094Z,102256.41
2022-08-29T03:23:53.377Z,102250.94
2022-08-29T03:26:23.178Z,102235.78
2022-08-29T03:28:49.792Z,102222.16
2022-08-29T03:31:16.428Z,102242.97
2022-08-29T03:33:43.364Z,102238.53
2022-08-29T03:36:14.383Z,102247.59
2022-08-29T03:38:46.342Z,102244.13
2022-08-29T03:41:20.848Z,102242.38
2022-08-29T03:43:47.489Z,102242.53
2022-08-29T03:46:14.037Z,102242.94
2022-08-29T03:48:42.938Z,102252.91
2022-08-29T03:51:09.560Z,102240.44
2022-08-29T03:53:36.075Z,102238.00
2022-08-29T03:56:04.943Z,102223.94
2022-08-29T03:58:31.460Z,102224.25
2022-08-29T04:01:00.794Z,102215.41
2022-08-29T04:03:30.992Z,102215.03
2022-08-29T04:05:59.153Z,102221.69
2022-08-29T04:08:25.830Z,102216.47
2022-08-29T04:10:52.498Z,102224.06
2022-08-29T04:13:19.068Z,102225.47
2022-08-29T04:15:45.654Z,102225.75
2022-08-29T04:18:12.350Z,102224.44
2022-08-29T04:20:41.713Z,102217.72
2022-08-29T04:23:08.818Z,102221.75
2022-08-29T04:25:37.571Z,102224.34
2022-08-29T04:28:09.582Z,102232.69
2022-08-29T04:30:38.229Z,102240.03
2022-08-29T04:33:05.500Z,102238.19
2022-08-29T04:35:35.587Z,102239.91
2022-08-29T04:38:05.233Z,102244.97
2022-08-29T04:40:31.981Z,102237.63
2022-08-29T04:42:59.567Z,102242.13
2022-08-29T04:45:26.690Z,102228.94
2022-08-29T04:47:53.575Z,102252.09
2022-08-29T04:50:23.305Z,102241.25
2022-08-29T04:52:52.459Z,102240.38
2022-08-29T04:55:22.734Z,102242.38
2022-08-29T04:57:53.087Z,102238.91
2022-08-29T05:00:24.921Z,102248.31
2022-08-29T05:02:53.894Z,102257.44
2022-08-29T05:05:20.565Z,102251.41
2022-08-29T05:07:49.556Z,102242.44
2022-08-29T05:10:18.527Z,102246.53
2022-08-29T05:12:45.786Z,102253.47
2022-08-29T05:15:14.064Z,102255.97
2022-08-29T05:17:41.255Z,102249.47
2022-08-29T05:20:10.919Z,102240.25
2022-08-29T05:22:39.208Z,102249.69
2022-08-29T05:25:06.460Z,102254.94
2022-08-29T05:27:33.080Z,102259.00
2022-08-29T05:29:59.696Z,102257.59
2022-08-29T05:32:26.316Z,102262.94
2022-08-29T05:34:52.967Z,102268.94
2022-08-29T05:37:20.938Z,102265.66
2022-08-29T05:39:49.134Z,102256.16
2022-08-29T05:42:17.215Z,102267.34
2022-08-29T05:44:43.982Z,102264.50
2022-08-29T05:47:13.238Z,102260.25
2022-08-29T05:49:42.737Z,102260.72
2022-08-29T05:52:10.804Z,102260.03
2022-08-29T05:54:39.407Z,102256.50
2022-08-29T05:57:07.409Z,102263.00
2022-08-29T05:59:35.369Z,102258.66
2022-08-29T06:02:04.695Z,102268.59
2022-08-29T06:04:31.261Z,102263.31
2022-08-29T06:06:57.880Z,102281.16
2022-08-29T06:09:24.495Z,102263.97
2022-08-29T06:11:53.150Z,102274.31
2022-08-29T06:14:21.944Z,102272.50
2022-08-29T06:16:48.597Z,102264.06
2022-08-29T06:19:15.272Z,102276.06
2022-08-29T06:21:44.863Z,102273.88
2022-08-29T06:24:13.915Z,102268.84
2022-08-29T06:26:40.532Z,102279.63
2022-08-29T06:29:09.765Z,102275.66
2022-08-29T06:31:39.321Z,102280.84
2022-08-29T06:34:07.444Z,102270.03
2022-08-29T06:36:37.149Z,102281.81
2022-08-29T06:39:08.570Z,102291.47
2022-08-29T06:41:36.387Z,102290.00
2022-08-29T06:44:03.759Z,102286.25
2022-08-29T06:46:33.662Z,102290.22
2022-08-29T06:49:05.508Z,102289.13
2022-08-29T06:51:33.343Z,102288.25
2022-08-29T06:54:02.236Z,102285.38
2022-08-29T06:56:29.569Z,102300.56
2022-08-29T06:58:56.930Z,102306.09
2022-08-29T07:01:23.690Z,102295.59
2022-08-29T07:03:52.457Z,102294.00
2022-08-29T07:06:19.258Z,102293.66
2022-08-29T07:08:55.723Z,102295.38
2022-08-29T07:11:24.285Z,102291.19
2022-08-29T07:13:50.851Z,102293.63
2022-08-29T07:16:18.884Z,102289.84
2022-08-29T07:18:46.934Z,102285.78
2022-08-29T07:21:20.928Z,102296.09
2022-08-29T07:23:51.121Z,102290.91
2022-08-29T07:26:22.995Z,102291.03
2022-08-29T07:28:52.206Z,102298.88
2022-08-29T07:31:20.175Z,102292.41
2022-08-29T07:33:47.009Z,102292.34
2022-08-29T07:36:14.492Z,102291.19
2022-08-29T07:38:41.465Z,102300.19
2022-08-29T07:41:10.414Z,102290.03
2022-08-29T07:43:39.333Z,102286.91
2022-08-29T07:46:07.847Z,102283.44
2022-08-29T07:48:34.536Z,102277.22
2022-08-29T07:51:01.399Z,102276.88
2022-08-29T07:53:30.457Z,102279.78
2022-08-29T07:55:59.592Z,102272.13
2022-08-29T07:58:26.156Z,102281.03
2022-08-29T08:00:52.695Z,102282.50
2022-08-29T08:03:22.262Z,102285.44
2022-08-29T08:05:48.885Z,102281.44
2022-08-29T08:08:18.101Z,102282.13
2022-08-29T08:10:51.873Z,102279.69
2022-08-29T08:13:19.602Z,102286.94
2022-08-29T08:15:46.317Z,102287.63
2022-08-29T08:18:16.474Z,102283.84
2022-08-29T08:20:48.339Z,102278.88
2022-08-29T08:23:19.050Z,102271.41
2022-08-29T08:25:45.942Z,102276.34
2022-08-29T08:28:14.240Z,102278.28
2022-08-29T08:30:41.129Z,102275.94
2022-08-29T08:33:07.909Z,102279.50
2022-08-29T08:35:36.309Z,102285.03
2022-08-29T08:38:06.824Z,102291.00
2022-08-29T08:40:33.640Z,102289.44
2022-08-29T08:43:04.261Z,102288.13
2022-08-29T08:45:36.997Z,102288.03
2022-08-29T08:48:15.641Z,102281.38
2022-08-29T08:50:45.158Z,102282.34
2022-08-29T08:53:27.396Z,102262.34
2022-08-29T08:55:56.293Z,102282.41
2022-08-29T08:58:33.239Z,102285.72
2022-08-29T09:01:04.850Z,102280.13
2022-08-29T09:03:56.353Z,102278.66
2022-08-29T09:06:44.835Z,102289.25
2022-08-29T09:09:47.506Z,102282.31
2022-08-29T09:12:51.939Z,102288.28
2022-08-29T09:15:27.141Z,102285.16
2022-08-29T09:18:04.664Z,102291.38
2022-08-29T09:20:36.321Z,102286.31
2022-08-29T09:23:11.655Z,102286.00
2022-08-29T09:25:43.964Z,102298.22
2022-08-29T09:28:10.690Z,102296.28
2022-08-29T09:30:39.295Z,102290.88
2022-08-29T09:33:17.685Z,102296.53
2022-08-29T09:35:49.624Z,102300.16
2022-08-29T09:38:25.772Z,102302.28
2022-08-29T09:41:07.702Z,102302.13
2022-08-29T09:43:57.403Z,102299.16
2022-08-29T09:46:25.666Z,102302.47
2022-08-29T09:48:58.067Z,102299.19
2022-08-29T09:51:36.587Z,102301.41
2022-08-29T09:54:26.897Z,102301.94
2022-08-29T09:57:01.583Z,102293.44
2022-08-29T09:59:31.462Z,102302.28
2022-08-29T10:02:18.749Z,102294.25
2022-08-29T10:04:53.414Z,102296.47
2022-08-29T10:07:26.493Z,102291.38
2022-08-29T10:09:57.645Z,102298.59
2022-08-29T10:13:11.907Z,102298.78
2022-08-29T10:15:52.760Z,102283.47
2022-08-29T10:18:52.830Z,102283.38
2022-08-29T10:21:49.641Z,102287.81
2022-08-29T10:25:10.617Z,102283.94
2022-08-29T10:28:01.410Z,102281.16
2022-08-29T10:30:42.936Z,102275.78
2022-08-29T10:33:09.720Z,102275.41
2022-08-29T10:36:01.024Z,102254.56
2022-08-29T10:38:45.736Z,102280.75
2022-08-29T10:41:42.839Z,102279.66
2022-08-29T10:44:19.321Z,102269.75
2022-08-29T10:47:13.780Z,102269.88
2022-08-29T10:49:55.249Z,102263.31
2022-08-29T10:52:33.409Z,102268.50
2022-08-29T10:55:35.805Z,102269.56
2022-08-29T10:58:34.426Z,102261.22
2022-08-29T11:01:10.123Z,102261.06
2022-08-29T11:03:43.076Z,102257.75
2022-08-29T11:06:15.887Z,102237.78
2022-08-29T11:08:53.472Z,102242.50
2022-08-29T11:11:23.199Z,102238.09
2022-08-29T11:14:17.539Z,102251.16
2022-08-29T11:16:48.934Z,102245.59
2022-08-29T11:19:29.112Z,102236.78
2022-08-29T11:22:00.459Z,102236.03
2022-08-29T11:24:34.395Z,102236.56
2022-08-29T11:27:41.746Z,102235.88
2022-08-29T11:30:17.547Z,102227.44
2022-08-29T11:33:14.801Z,102228.97
2022-08-29T11:36:09.457Z,102215.22
2022-08-29T11:39:17.624Z,102208.63
2022-08-29T11:41:49.650Z,102211.03
2022-08-29T11:44:41.074Z,102215.44
2022-08-29T11:47:33.886Z,102203.66
2022-08-29T11:50:16.905Z,102208.81
2022-08-29T11:52:56.590Z,102199.19
2022-08-29T11:55:35.827Z,102215.25
2022-08-29T11:58:27.398Z,102214.50
2022-08-29T12:00:58.421Z,102218.59
2022-08-29T12:03:34.498Z,102216.81
2022-08-29T12:06:30.667Z,102214.38
2022-08-29T12:09:13.872Z,102207.31
2022-08-29T12:11:59.349Z,102195.50
2022-08-29T12:14:37.411Z,102196.63
2022-08-29T12:17:08.186Z,102214.00
2022-08-29T12:19:48.145Z,102206.91
2022-08-29T12:22:51.459Z,102195.09
2022-08-29T12:25:27.142Z,102209.03
2022-08-29T12:28:01.836Z,102202.06
2022-08-29T12:30:42.369Z,102198.72
2022-08-29T12:33:36.721Z,102197.84
2022-08-29T12:36:37.702Z,102193.47
2022-08-29T12:39:25.795Z,102192.50
2022-08-29T12:42:11.814Z,102181.38
2022-08-29T12:44:45.419Z,102174.44
2022-08-29T12:47:19.108Z,102169.97
2022-08-29T12:49:51.736Z,102178.31
2022-08-29T12:52:23.363Z,102179.16
2022-08-29T12:54:56.287Z,102171.75
2022-08-29T12:57:36.995Z,102157.09
2022-08-29T13:00:12.293Z,102160.81
2022-08-29T13:02:39.212Z,102162.53
2022-08-29T13:05:19.867Z,102168.44
2022-08-29T13:08:11.172Z,102164.59
2022-08-29T13:10:51.701Z,102156.44
2022-08-29T13:13:23.353Z,102159.00
2022-08-29T13:15:54.809Z,102146.13
2022-08-29T13:18:25.010Z,102151.72
2022-08-29T13:21:12.303Z,102148.28
2022-08-29T13:23:45.898Z,102145.28
2022-08-29T13:26:14.790Z,102144.44
2022-08-29T13:28:42.933Z,102142.94
2022-08-29T13:31:15.790Z,102130.44
2022-08-29T13:33:45.451Z,102133.69
2022-08-29T13:36:27.138Z,102140.31
2022-08-29T13:39:19.042Z,102131.53
2022-08-29T13:41:49.196Z,102120.38
2022-08-29T13:44:52.479Z,102125.97
2022-08-29T13:47:31.054Z,102135.78
2022-08-29T13:50:10.244Z,102123.75
2022-08-29T13:52:41.591Z,102111.31
2022-08-29T13:55:09.952Z,102113.88
2022-08-29T13:57:39.883Z,102111.31
2022-08-29T14:00:07.675Z,102113.03
2022-08-29T14:02:35.012Z,102111.72
2022-08-29T14:05:01.769Z,102107.72
2022-08-29T14:07:31.591Z,102107.91
2022-08-29T14:09:58.743Z,102106.22
2022-08-29T14:12:33.670Z,102113.03
2022-08-29T14:15:05.283Z,102105.34
2022-08-29T14:17:35.018Z,102097.56
2022-08-29T14:20:01.539Z,102103.16
2022-08-29T14:22:28.073Z,102091.16
2022-08-29T14:24:57.134Z,102095.47
2022-08-29T14:27:23.740Z,102098.72
2022-08-29T14:29:51.319Z,102102.13
2022-08-29T14:32:17.973Z,102096.97
2022-08-29T14:34:52.339Z,102106.63
2022-08-29T14:37:20.083Z,102101.94
2022-08-29T14:39:50.040Z,102098.06
2022-08-29T14:42:17.829Z,102097.16
2022-08-29T14:44:44.880Z,102092.41
2022-08-29T14:47:11.515Z,102091.34
2022-08-29T14:49:38.170Z,102084.25
2022-08-29T14:52:05.647Z,102073.72
2022-08-29T14:54:32.358Z,102072.25
2022-08-29T14:56:59.679Z,102082.09
2022-08-29T14:59:26.331Z,102070.09
2022-08-29T15:01:55.053Z,102066.88
2022-08-29T15:04:35.982Z,102069.47
2022-08-29T15:07:10.628Z,102060.25
2022-08-29T15:09:39.017Z,102069.25
2022-08-29T15:12:06.019Z,102063.69
2022-08-29T15:14:34.893Z,102053.00
2022-08-29T15:17:02.657Z,102058.75
2022-08-29T15:22:16.153Z,102051.00
2022-08-29T15:24:43.259Z,102043.28
2022-08-29T15:27:12.697Z,102044.78
2022-08-29T15:29:40.885Z,102046.06
2022-08-29T15:32:08.552Z,102035.78
2022-08-29T15:34:35.296Z,102040.47
2022-08-29T15:37:05.090Z,102034.91
2022-08-29T15:39:31.926Z,102029.53
2022-08-29T15:42:01.439Z,102030.22
2022-08-29T15:44:28.963Z,102020.75
2022-08-29T15:46:56.874Z,102039.44
2022-08-29T15:49:28.482Z,102038.38
2022-08-29T15:51:57.808Z,102027.84
2022-08-29T15:54:25.986Z,102031.28
2022-08-29T15:56:52.867Z,102031.91
2022-08-29T15:59:27.759Z,102034.91
2022-08-29T16:02:05.197Z,102027.22
2022-08-29T16:04:36.522Z,102024.19
2022-08-29T16:07:04.051Z,102011.75
2022-08-29T16:09:33.069Z,102011.75
2022-08-29T16:11:59.733Z,102018.19
2022-08-29T16:14:58.187Z,102019.91
2022-08-29T16:17:14.019Z,102017.75
2022-08-29T16:19:43.483Z,102017.13
2022-08-29T16:22:10.978Z,102019.47
2022-08-29T16:24:38.190Z,102019.03
2022-08-29T16:27:07.520Z,102020.53
2022-08-29T16:29:35.049Z,102024.44
2022-08-29T16:32:01.930Z,102022.91
2022-08-29T16:34:31.034Z,102028.28
2022-08-29T16:37:01.769Z,102017.97
2022-08-29T16:39:29.180Z,102013.25
2022-08-29T16:41:58.991Z,102025.06
2022-08-29T16:44:28.157Z,102025.25
2022-08-29T16:46:54.693Z,102011.94
2022-08-29T16:49:21.244Z,102022.22
2022-08-29T16:51:50.055Z,102017.25
2022-08-29T16:54:16.579Z,102014.69
2022-08-29T16:56:43.195Z,102015.78
2022-08-29T16:59:12.631Z,102016.63
2022-08-29T17:01:43.086Z,102012.16
2022-08-29T17:04:13.969Z,102004.59
2022-08-29T17:06:41.623Z,102009.94
2022-08-29T17:09:09.234Z,102007.34
2022-08-29T17:11:39.139Z,102001.13
2022-08-29T17:14:07.373Z,102009.25
2022-08-29T17:16:34.715Z,102011.81
2022-08-29T17:19:01.333Z,102007.91
2022-08-29T17:21:27.986Z,102014.13
2022-08-29T17:23:55.486Z,102008.09
2022-08-29T17:26:22.721Z,102006.41
2022-08-29T17:28:49.437Z,102007.03
2022-08-29T17:31:16.364Z,102007.22
2022-08-29T17:33:43.740Z,102010.63
2022-08-29T17:36:11.540Z,101999.28
2022-08-29T17:38:46.185Z,102004.50
2022-08-29T17:41:19.211Z,101995.34
2022-08-29T17:43:48.538Z,102001.28
2022-08-29T17:46:18.706Z,102011.03
2022-08-29T17:48:45.947Z,102009.66
2022-08-29T17:51:12.936Z,102010.00
2022-08-29T17:53:40.769Z,102017.66
2022-08-29T17:56:29.304Z,102010.72
2022-08-29T17:58:56.117Z,102007.66
2022-08-29T18:01:22.704Z,102015.16
2022-08-29T18:03:49.421Z,102014.81
2022-08-29T18:06:15.992Z,102027.44
2022-08-29T18:08:47.752Z,102017.31
2022-08-29T18:11:17.225Z,102011.69
2022-08-29T18:13:44.997Z,102014.81
2022-08-29T18:16:14.977Z,102011.28
2022-08-29T18:18:42.186Z,102014.88
2022-08-29T18:21:12.437Z,102017.78
2022-08-29T18:23:44.162Z,102009.56
2022-08-29T18:26:10.724Z,102007.78
2022-08-29T18:28:37.325Z,102005.97
2022-08-29T18:31:04.032Z,102000.09
2022-08-29T18:33:44.232Z,102007.09
2022-08-29T18:36:18.294Z,102008.66
2022-08-29T18:38:44.880Z,102008.56
2022-08-29T18:41:14.459Z,102016.97
2022-08-29T18:43:41.234Z,102020.53
2022-08-29T18:46:09.341Z,102024.06
2022-08-29T18:48:39.799Z,102030.38
2022-08-29T18:51:06.623Z,102035.00
2022-08-29T18:53:33.786Z,102027.53
2022-08-29T18:56:02.345Z,102037.56
2022-08-29T18:58:34.362Z,102048.38
2022-08-29T19:01:12.873Z,102042.72
2022-08-29T19:03:41.146Z,102039.84
2022-08-29T19:06:07.852Z,102037.81
2022-08-29T19:08:34.421Z,102051.03
2022-08-29T19:11:01.308Z,102021.88
2022-08-29T19:13:30.918Z,102031.94
2022-08-29T19:15:59.069Z,102044.06
2022-08-29T19:18:26.928Z,102047.38
2022-08-29T19:21:02.511Z,102051.28
2022-08-29T19:23:31.193Z,102043.03
2022-08-29T19:25:57.802Z,102055.72
2022-08-29T19:28:24.571Z,102053.03
2022-08-29T19:30:52.201Z,102055.31
2022-08-29T19:33:20.029Z,102057.75
2022-08-29T19:35:51.471Z,102053.81
2022-08-29T19:38:20.377Z,102049.84
2022-08-29T19:40:48.691Z,102056.16
2022-08-29T19:43:15.786Z,102048.75
2022-08-29T19:45:44.213Z,102047.56
2022-08-29T19:48:15.091Z,102037.56
2022-08-29T19:50:43.425Z,102049.00
2022-08-29T19:53:19.949Z,102048.50
2022-08-29T19:55:53.488Z,102039.38
2022-08-29T19:58:20.123Z,102052.84
2022-08-29T20:00:46.798Z,102041.81
2022-08-29T20:03:14.912Z,102050.47
2022-08-29T20:05:41.626Z,102051.00
2022-08-29T20:08:09.306Z,102059.66
2022-08-29T20:10:36.934Z,102047.44
2022-08-29T20:13:04.263Z,102055.06
2022-08-29T20:15:31.054Z,102043.81
2022-08-29T20:17:59.648Z,102043.84
2022-08-29T20:20:31.847Z,102052.16
2022-08-29T20:22:58.533Z,102057.19
2022-08-29T20:25:25.718Z,102047.88
2022-08-29T20:27:53.162Z,102058.94
2022-08-29T20:30:24.180Z,102052.88
2022-08-29T20:32:54.232Z,102052.22
2022-08-29T20:35:40.708Z,102062.06
2022-08-29T20:38:07.975Z,102052.75
2022-08-29T20:40:42.626Z,102058.28
2022-08-29T20:43:12.278Z,102060.66
2022-08-29T20:45:38.909Z,102064.47
2022-08-29T20:48:05.695Z,102069.31
2022-08-29T20:50:33.217Z,102061.03
2022-08-29T20:52:59.759Z,102062.94
2022-08-29T20:55:28.541Z,102066.72
2022-08-29T20:57:55.112Z,102066.22
2022-08-29T21:00:22.330Z,102067.41
2022-08-29T21:03:07.920Z,102052.75
2022-08-29T21:05:45.581Z,102069.69
2022-08-29T21:08:19.306Z,102067.78
2022-08-29T21:10:47.692Z,102069.84
2022-08-29T21:13:15.293Z,102071.22
2022-08-29T21:15:44.784Z,102074.19
2022-08-29T21:18:14.041Z,102075.22
2022-08-29T21:20:53.582Z,102063.81
2022-08-29T21:23:21.935Z,102062.94
2022-08-29T21:25:56.257Z,102067.59
2022-08-29T21:28:24.814Z,102047.59
2022-08-29T21:30:56.208Z,102058.28
2022-08-29T21:33:25.224Z,102065.84
2022-08-29T21:35:51.783Z,102067.94
2022-08-29T21:38:18.436Z,102073.78
2022-08-29T21:40:50.281Z,102067.75
2022-08-29T21:43:19.284Z,102075.34
2022-08-29T21:45:46.246Z,102060.66
2022-08-29T21:48:15.700Z,102074.13
2022-08-29T21:50:43.119Z,102069.81
2022-08-29T21:53:14.595Z,102070.84
2022-08-29T21:55:41.483Z,102077.56
2022-08-29T21:58:08.369Z,102081.38
2022-08-29T22:00:37.164Z,102077.88
2022-08-29T22:03:06.981Z,102081.03
2022-08-29T22:05:33.934Z,102076.84
2022-08-29T22:08:03.267Z,102079.56
2022-08-29T22:10:33.970Z,102088.69
2022-08-29T22:13:04.070Z,102099.03
2022-08-29T22:15:52.036Z,102090.25
2022-08-29T22:18:19.155Z,102091.44
2022-08-29T22:20:55.093Z,102090.03
2022-08-29T22:23:25.522Z,102091.41
2022-08-29T22:25:53.700Z,102092.25
2022-08-29T22:28:20.297Z,102086.91
2022-08-29T22:30:48.781Z,102086.53
2022-08-29T22:33:16.354Z,102093.09
2022-08-29T22:35:43.496Z,102097.75
2022-08-29T22:38:10.473Z,102102.72
2022-08-29T22:40:37.109Z,102097.19
2022-08-29T22:43:04.159Z,102105.78
2022-08-29T22:45:33.214Z,102095.97
2022-08-29T22:47:59.992Z,102107.31
2022-08-29T22:50:26.581Z,102101.81
2022-08-29T22:52:57.486Z,102093.31
2022-08-29T22:57:49.969Z,102099.84
2022-08-29T23:00:20.390Z,102106.38
2022-08-29T23:02:47.573Z,102113.97
2022-08-29T23:05:15.109Z,102106.88
2022-08-29T23:07:41.717Z,102110.69
2022-08-29T23:10:09.969Z,102090.28
2022-08-29T23:12:36.811Z,102108.09
2022-08-29T23:15:10.382Z,102094.78
2022-08-29T23:17:37.042Z,102101.31
2022-08-29T23:20:06.686Z,102101.31
2022-08-29T23:22:35.685Z,102106.66
2022-08-29T23:25:03.104Z,102103.06
2022-08-29T23:27:31.674Z,102101.72
2022-08-29T23:29:59.850Z,102112.22
2022-08-29T23:32:29.023Z,102105.69
2022-08-29T23:34:57.789Z,102097.91
2022-08-29T23:37:24.597Z,102102.63
2022-08-29T23:39:51.250Z,102099.00
2022-08-29T23:42:20.655Z,102102.78
2022-08-29T23:44:48.260Z,102102.78
2022-08-29T23:47:18.091Z,102106.56
2022-08-29T23:49:47.032Z,102101.19
2022-08-29T23:52:14.009Z,102101.53
2022-08-29T23:54:40.760Z,102103.59
2022-08-29T23:57:07.267Z,102108.25
2022-08-29T23:59:53.073Z,102103.75
